sensor_id;sensor_type;location;lat;lon;timestamp;pressure;altitude;pressure_sealevel;temperature;humidity
52777;BME280;38656;54.260;20.822;2024-03-07T00:00:07;102362.19;;;-0.50;100.00
52777;BME280;38656;54.260;20.822;2024-03-07T00:02:44;102356.97;;;-0.43;100.00
52777;BME280;38656;54.260;20.822;2024-03-07T00:05:11;102357.00;;;-0.47;100.00
52777;BME280;38656;54.260;20.822;2024-03-07T00:07:42;102357.03;;;-0.55;100.00
52777;BME280;38656;54.260;20.822;2024-03-07T00:10:08;102355.34;;;-0.75;100.00
52777;BME280;38656;54.260;20.822;2024-03-07T00:12:36;102351.91;;;-0.75;100.00
52777;BME280;38656;54.260;20.822;2024-03-07T00:15:10;102363.13;;;-0.75;100.00
52777;BME280;38656;54.260;20.822;2024-03-07T00:17:37;102360.53;;;-0.76;100.00
52777;BME280;38656;54.260;20.822;2024-03-07T00:20:04;102355.34;;;-0.73;100.00
52777;BME280;38656;54.260;20.822;2024-03-07T00:22:35;102357.94;;;-0.70;100.00
52777;BME280;38656;54.260;20.822;2024-03-07T00:25:02;102355.34;;;-0.70;100.00
52777;BME280;38656;54.260;20.822;2024-03-07T00:27:31;102364.88;;;-0.80;100.00
52777;BME280;38656;54.260;20.822;2024-03-07T00:29:58;102360.56;;;-0.88;100.00
52777;BME280;38656;54.260;20.822;2024-03-07T00:32:24;102357.06;;;-0.84;100.00
52777;BME280;38656;54.260;20.822;2024-03-07T00:34:52;102360.53;;;-0.81;100.00
52777;BME280;38656;54.260;20.822;2024-03-07T00:37:19;102357.97;;;-0.82;100.00
52777;BME280;38656;54.260;20.822;2024-03-07T00:39:45;102356.22;;;-0.82;100.00
52777;BME280;38656;54.260;20.822;2024-03-07T00:42:11;102358.84;;;-0.93;100.00
52777;BME280;38656;54.260;20.822;2024-03-07T00:44:37;102365.75;;;-0.92;100.00
52777;BME280;38656;54.260;20.822;2024-03-07T00:47:04;102357.09;;;-0.97;100.00
52777;BME280;38656;54.260;20.822;2024-03-07T00:49:30;102351.94;;;-1.03;100.00
52777;BME280;38656;54.260;20.822;2024-03-07T00:52:00;102346.72;;;-0.92;100.00
52777;BME280;38656;54.260;20.822;2024-03-07T00:54:26;102351.91;;;-0.87;100.00
52777;BME280;38656;54.260;20.822;2024-03-07T00:56:52;102355.38;;;-0.95;100.00
52777;BME280;38656;54.260;20.822;2024-03-07T00:59:19;102345.03;;;-1.01;100.00
52777;BME280;38656;54.260;20.822;2024-03-07T01:01:45;102352.81;;;-1.19;100.00
52777;BME280;38656;54.260;20.822;2024-03-07T01:04:12;102339.84;;;-1.22;100.00
52777;BME280;38656;54.260;20.822;2024-03-07T01:06:38;102351.06;;;-1.31;100.00
52777;BME280;38656;54.260;20.822;2024-03-07T01:09:06;102346.78;;;-1.35;100.00
52777;BME280;38656;54.260;20.822;2024-03-07T01:11:42;102359.69;;;-1.46;100.00
52777;BME280;38656;54.260;20.822;2024-03-07T01:14:08;102351.97;;;-1.40;100.00
52777;BME280;38656;54.260;20.822;2024-03-07T01:16:34;102347.63;;;-1.36;100.00
52777;BME280;38656;54.260;20.822;2024-03-07T01:19:01;102340.69;;;-1.28;100.00
52777;BME280;38656;54.260;20.822;2024-03-07T01:21:28;102341.56;;;-1.09;100.00
52777;BME280;38656;54.260;20.822;2024-03-07T01:23:54;102334.66;;;-1.29;100.00
52777;BME280;38656;54.260;20.822;2024-03-07T01:26:20;102331.22;;;-1.37;100.00
52777;BME280;38656;54.260;20.822;2024-03-07T01:28:46;102334.66;;;-1.35;100.00
52777;BME280;38656;54.260;20.822;2024-03-07T01:31:12;102343.31;;;-1.48;100.00
52777;BME280;38656;54.260;20.822;2024-03-07T01:33:38;102332.94;;;-1.39;100.00
52777;BME280;38656;54.260;20.822;2024-03-07T01:36:05;102342.44;;;-1.43;100.00
52777;BME280;38656;54.260;20.822;2024-03-07T01:38:31;102337.25;;;-1.59;100.00
52777;BME280;38656;54.260;20.822;2024-03-07T01:40:57;102336.38;;;-1.52;100.00
52777;BME280;38656;54.260;20.822;2024-03-07T01:43:24;102339.00;;;-1.41;100.00
52777;BME280;38656;54.260;20.822;2024-03-07T01:45:54;102336.41;;;-1.34;100.00
52777;BME280;38656;54.260;20.822;2024-03-07T01:48:27;102332.94;;;-1.39;100.00
52777;BME280;38656;54.260;20.822;2024-03-07T01:50:55;102335.53;;;-1.51;100.00
52777;BME280;38656;54.260;20.822;2024-03-07T01:53:23;102333.78;;;-1.57;100.00
52777;BME280;38656;54.260;20.822;2024-03-07T01:55:51;102332.06;;;-1.66;100.00
52777;BME280;38656;54.260;20.822;2024-03-07T01:58:19;102334.63;;;-1.63;100.00
52777;BME280;38656;54.260;20.822;2024-03-07T02:00:46;102345.88;;;-1.71;100.00
52777;BME280;38656;54.260;20.822;2024-03-07T02:03:13;102338.97;;;-1.63;100.00
52777;BME280;38656;54.260;20.822;2024-03-07T02:05:40;102338.09;;;-1.73;100.00
52777;BME280;38656;54.260;20.822;2024-03-07T02:08:07;102348.47;;;-1.71;100.00
52777;BME280;38656;54.260;20.822;2024-03-07T02:10:33;102343.28;;;-1.73;100.00
52777;BME280;38656;54.260;20.822;2024-03-07T02:12:59;102332.03;;;-1.70;100.00
52777;BME280;38656;54.260;20.822;2024-03-07T02:15:27;102336.38;;;-1.80;100.00
52777;BME280;38656;54.260;20.822;2024-03-07T02:17:53;102336.38;;;-1.77;100.00
52777;BME280;38656;54.260;20.822;2024-03-07T02:20:19;102334.63;;;-1.70;100.00
52777;BME280;38656;54.260;20.822;2024-03-07T02:22:46;102331.19;;;-1.74;100.00
52777;BME280;38656;54.260;20.822;2024-03-07T02:25:13;102337.22;;;-1.76;100.00
52777;BME280;38656;54.260;20.822;2024-03-07T02:27:39;102334.63;;;-1.83;100.00
52777;BME280;38656;54.260;20.822;2024-03-07T02:30:05;102342.38;;;-1.84;100.00
52777;BME280;38656;54.260;20.822;2024-03-07T02:32:35;102333.75;;;-1.97;100.00
52777;BME280;38656;54.260;20.822;2024-03-07T02:35:03;102337.13;;;-2.20;100.00
52777;BME280;38656;54.260;20.822;2024-03-07T02:37:30;102344.88;;;-2.21;100.00
52777;BME280;38656;54.260;20.822;2024-03-07T02:39:56;102336.22;;;-2.23;100.00
52777;BME280;38656;54.260;20.822;2024-03-07T02:42:22;102332.78;;;-2.28;100.00
52777;BME280;38656;54.260;20.822;2024-03-07T02:44:48;102337.97;;;-2.22;100.00
52777;BME280;38656;54.260;20.822;2024-03-07T02:47:15;102336.25;;;-2.17;100.00
52777;BME280;38656;54.260;20.822;2024-03-07T02:49:41;102337.13;;;-2.17;100.00
52777;BME280;38656;54.260;20.822;2024-03-07T02:52:07;102342.34;;;-2.07;100.00
52777;BME280;38656;54.260;20.822;2024-03-07T02:54:34;102336.28;;;-2.05;100.00
52777;BME280;38656;54.260;20.822;2024-03-07T02:57:01;102337.13;;;-2.21;100.00
52777;BME280;38656;54.260;20.822;2024-03-07T02:59:27;102332.84;;;-2.10;100.00
52777;BME280;38656;54.260;20.822;2024-03-07T03:01:53;102332.84;;;-2.10;100.00
52777;BME280;38656;54.260;20.822;2024-03-07T03:04:21;102338.00;;;-2.10;100.00
52777;BME280;38656;54.260;20.822;2024-03-07T03:06:47;102337.16;;;-2.04;100.00
52777;BME280;38656;54.260;20.822;2024-03-07T03:09:13;102338.00;;;-2.13;100.00
52777;BME280;38656;54.260;20.822;2024-03-07T03:11:44;102336.28;;;-2.11;100.00
52777;BME280;38656;54.260;20.822;2024-03-07T03:14:11;102334.56;;;-2.09;100.00
52777;BME280;38656;54.260;20.822;2024-03-07T03:16:41;102329.38;;;-2.15;100.00
52777;BME280;38656;54.260;20.822;2024-03-07T03:19:08;102340.56;;;-2.22;100.00
52777;BME280;38656;54.260;20.822;2024-03-07T03:21:35;102336.25;;;-2.20;100.00
52777;BME280;38656;54.260;20.822;2024-03-07T03:24:02;102332.84;;;-2.10;100.00
52777;BME280;38656;54.260;20.822;2024-03-07T03:26:29;102340.53;;;-2.32;100.00
52777;BME280;38656;54.260;20.822;2024-03-07T03:28:57;102340.56;;;-2.24;100.00
52777;BME280;38656;54.260;20.822;2024-03-07T03:31:24;102338.84;;;-2.20;100.00
52777;BME280;38656;54.260;20.822;2024-03-07T03:33:50;102339.72;;;-2.21;100.00
52777;BME280;38656;54.260;20.822;2024-03-07T03:36:17;102346.59;;;-2.16;100.00
52777;BME280;38656;54.260;20.822;2024-03-07T03:38:43;102340.53;;;-2.32;100.00
52777;BME280;38656;54.260;20.822;2024-03-07T03:41:09;102339.72;;;-2.18;100.00
52777;BME280;38656;54.260;20.822;2024-03-07T03:43:35;102345.69;;;-2.35;100.00
52777;BME280;38656;54.260;20.822;2024-03-07T03:46:01;102351.75;;;-2.26;100.00
52777;BME280;38656;54.260;20.822;2024-03-07T03:48:28;102350.00;;;-2.31;100.00
52777;BME280;38656;54.260;20.822;2024-03-07T03:50:54;102346.53;;;-2.36;100.00
52777;BME280;38656;54.260;20.822;2024-03-07T03:53:20;102346.53;;;-2.39;100.00
52777;BME280;38656;54.260;20.822;2024-03-07T03:55:46;102349.06;;;-2.53;100.00
52777;BME280;38656;54.260;20.822;2024-03-07T03:58:12;102349.94;;;-2.43;100.00
52777;BME280;38656;54.260;20.822;2024-03-07T04:00:39;102343.03;;;-2.47;100.00
52777;BME280;38656;54.260;20.822;2024-03-07T04:03:05;102342.16;;;-2.54;100.00
52777;BME280;38656;54.260;20.822;2024-03-07T04:05:33;102342.09;;;-2.63;100.00
52777;BME280;38656;54.260;20.822;2024-03-07T04:07:59;102338.69;;;-2.57;100.00
52777;BME280;38656;54.260;20.822;2024-03-07T04:10:25;102337.72;;;-2.75;100.00
52777;BME280;38656;54.260;20.822;2024-03-07T04:12:51;102341.22;;;-2.67;100.00
52777;BME280;38656;54.260;20.822;2024-03-07T04:15:18;102342.94;;;-2.65;100.00
52777;BME280;38656;54.260;20.822;2024-03-07T04:17:44;102338.63;;;-2.65;100.00
52777;BME280;38656;54.260;20.822;2024-03-07T04:20:13;102345.56;;;-2.61;100.00
52777;BME280;38656;54.260;20.822;2024-03-07T04:22:40;102342.94;;;-2.67;100.00
52777;BME280;38656;54.260;20.822;2024-03-07T04:25:07;102342.94;;;-2.69;100.00
52777;BME280;38656;54.260;20.822;2024-03-07T04:27:34;102341.19;;;-2.70;100.00
52777;BME280;38656;54.260;20.822;2024-03-07T04:30:06;102339.47;;;-2.74;100.00
52777;BME280;38656;54.260;20.822;2024-03-07T04:32:33;102346.31;;;-2.76;100.00
52777;BME280;38656;54.260;20.822;2024-03-07T04:35:03;102340.28;;;-2.79;100.00
52777;BME280;38656;54.260;20.822;2024-03-07T04:37:33;102343.75;;;-2.74;100.00
52777;BME280;38656;54.260;20.822;2024-03-07T04:40:04;102339.44;;;-2.78;100.00
52777;BME280;38656;54.260;20.822;2024-03-07T04:42:30;102343.72;;;-2.79;100.00
52777;BME280;38656;54.260;20.822;2024-03-07T04:44:56;102344.63;;;-2.77;100.00
52777;BME280;38656;54.260;20.822;2024-03-07T04:47:23;102349.69;;;-2.89;100.00
52777;BME280;38656;54.260;20.822;2024-03-07T04:49:49;102351.47;;;-2.80;100.00
52777;BME280;38656;54.260;20.822;2024-03-07T04:52:15;102353.25;;;-2.75;100.00
52777;BME280;38656;54.260;20.822;2024-03-07T04:54:41;102350.63;;;-2.81;100.00
52777;BME280;38656;54.260;20.822;2024-03-07T04:57:07;102345.38;;;-2.95;100.00
52777;BME280;38656;54.260;20.822;2024-03-07T04:59:33;102341.91;;;-2.95;100.00
52777;BME280;38656;54.260;20.822;2024-03-07T05:01:59;102341.88;;;-3.02;100.00
52777;BME280;38656;54.260;20.822;2024-03-07T05:04:25;102342.78;;;-2.93;100.00
52777;BME280;38656;54.260;20.822;2024-03-07T05:06:55;102339.28;;;-3.02;100.00
52777;BME280;38656;54.260;20.822;2024-03-07T05:09:21;102337.63;;;-2.93;100.00
52777;BME280;38656;54.260;20.822;2024-03-07T05:11:51;102338.44;;;-2.97;100.00
52777;BME280;38656;54.260;20.822;2024-03-07T05:14:18;102330.72;;;-2.93;100.00
52777;BME280;38656;54.260;20.822;2024-03-07T05:16:44;102335.88;;;-2.97;100.00
52777;BME280;38656;54.260;20.822;2024-03-07T05:19:10;102341.88;;;-2.97;100.00
52777;BME280;38656;54.260;20.822;2024-03-07T05:21:37;102348.00;;;-2.87;100.00
52777;BME280;38656;54.260;20.822;2024-03-07T05:24:08;102351.47;;;-2.82;100.00
52777;BME280;38656;54.260;20.822;2024-03-07T05:26:35;102341.13;;;-2.79;100.00
52777;BME280;38656;54.260;20.822;2024-03-07T05:29:07;102336.00;;;-2.74;100.00
52777;BME280;38656;54.260;20.822;2024-03-07T05:31:40;102340.28;;;-2.81;100.00
52777;BME280;38656;54.260;20.822;2024-03-07T05:34:16;102343.78;;;-2.71;100.00
52777;BME280;38656;54.260;20.822;2024-03-07T05:36:45;102336.09;;;-2.60;100.00
52777;BME280;38656;54.260;20.822;2024-03-07T05:39:16;102348.09;;;-2.69;100.00
52777;BME280;38656;54.260;20.822;2024-03-07T05:41:44;102338.69;;;-2.57;100.00
52777;BME280;38656;54.260;20.822;2024-03-07T05:44:14;102341.28;;;-2.60;100.00
52777;BME280;38656;54.260;20.822;2024-03-07T05:46:42;102344.69;;;-2.64;100.00
52777;BME280;38656;54.260;20.822;2024-03-07T05:49:13;102344.72;;;-2.55;100.00
52777;BME280;38656;54.260;20.822;2024-03-07T05:51:39;102345.59;;;-2.55;100.00
52777;BME280;38656;54.260;20.822;2024-03-07T05:54:07;102349.06;;;-2.48;100.00
52777;BME280;38656;54.260;20.822;2024-03-07T05:56:35;102356.94;;;-2.26;100.00
52777;BME280;38656;54.260;20.822;2024-03-07T05:59:04;102349.22;;;-2.08;100.00
52777;BME280;38656;54.260;20.822;2024-03-07T06:01:33;102357.06;;;-1.92;100.00
52777;BME280;38656;54.260;20.822;2024-03-07T06:04:01;102346.72;;;-1.77;100.00
52777;BME280;38656;54.260;20.822;2024-03-07T06:06:28;102345.88;;;-1.47;100.00
52777;BME280;38656;54.260;20.822;2024-03-07T06:08:54;102342.44;;;-1.21;100.00
52777;BME280;38656;54.260;20.822;2024-03-07T06:11:20;102346.72;;;-0.87;100.00
52777;BME280;38656;54.260;20.822;2024-03-07T06:13:50;102343.97;;;-0.38;100.00
52777;BME280;38656;54.260;20.822;2024-03-07T06:16:16;102343.84;;;-0.06;100.00
52777;BME280;38656;54.260;20.822;2024-03-07T06:18:44;102345.06;;;0.71;100.00
52777;BME280;38656;54.260;20.822;2024-03-07T06:21:12;102348.88;;;1.24;100.00
52777;BME280;38656;54.260;20.822;2024-03-07T06:23:39;102342.84;;;1.94;100.00
52777;BME280;38656;54.260;20.822;2024-03-07T06:26:05;102348.16;;;2.48;100.00
52777;BME280;38656;54.260;20.822;2024-03-07T06:28:39;102339.56;;;2.93;100.00
52777;BME280;38656;54.260;20.822;2024-03-07T06:31:05;102339.09;;;3.21;100.00
52777;BME280;38656;54.260;20.822;2024-03-07T06:33:34;102350.66;;;3.08;100.00
52777;BME280;38656;54.260;20.822;2024-03-07T06:36:00;102339.97;;;3.65;100.00
52777;BME280;38656;54.260;20.822;2024-03-07T06:38:29;102337.69;;;4.30;100.00
52777;BME280;38656;54.260;20.822;2024-03-07T06:40:55;102352.72;;;4.20;100.00
52777;BME280;38656;54.260;20.822;2024-03-07T06:43:22;102345.59;;;4.64;100.00
52777;BME280;38656;54.260;20.822;2024-03-07T06:45:48;102346.72;;;3.76;100.00
52777;BME280;38656;54.260;20.822;2024-03-07T06:48:15;102349.13;;;3.43;100.00
52777;BME280;38656;54.260;20.822;2024-03-07T06:50:43;102341.28;;;5.29;100.00
52777;BME280;38656;54.260;20.822;2024-03-07T06:53:10;102350.63;;;5.39;100.00
52777;BME280;38656;54.260;20.822;2024-03-07T06:55:37;102345.88;;;6.13;100.00
52777;BME280;38656;54.260;20.822;2024-03-07T06:58:04;102348.81;;;6.84;100.00
52777;BME280;38656;54.260;20.822;2024-03-07T07:00:33;102349.00;;;7.05;100.00
52777;BME280;38656;54.260;20.822;2024-03-07T07:03:02;102343.59;;;7.35;100.00
52777;BME280;38656;54.260;20.822;2024-03-07T07:05:30;102341.53;;;7.43;100.00
52777;BME280;38656;54.260;20.822;2024-03-07T07:07:56;102349.66;;;7.60;100.00
52777;BME280;38656;54.260;20.822;2024-03-07T07:10:23;102335.09;;;7.26;100.00
52777;BME280;38656;54.260;20.822;2024-03-07T07:12:50;102334.91;;;7.80;100.00
52777;BME280;38656;54.260;20.822;2024-03-07T07:15:21;102338.84;;;8.14;100.00
52777;BME280;38656;54.260;20.822;2024-03-07T07:17:48;102344.06;;;7.70;100.00
52777;BME280;38656;54.260;20.822;2024-03-07T07:20:19;102350.41;;;8.10;100.00
52777;BME280;38656;54.260;20.822;2024-03-07T07:22:47;102345.66;;;8.42;100.00
52777;BME280;38656;54.260;20.822;2024-03-07T07:25:14;102349.81;;;8.70;100.00
52777;BME280;38656;54.260;20.822;2024-03-07T07:27:50;102354.16;;;8.26;100.00
52777;BME280;38656;54.260;20.822;2024-03-07T07:30:19;102351.53;;;8.91;100.00
52777;BME280;38656;54.260;20.822;2024-03-07T07:32:46;102353.09;;;8.54;100.00
52777;BME280;38656;54.260;20.822;2024-03-07T07:35:12;102360.94;;;7.39;100.00
52777;BME280;38656;54.260;20.822;2024-03-07T07:37:43;102353.94;;;8.32;100.00
52777;BME280;38656;54.260;20.822;2024-03-07T07:40:11;102357.22;;;8.15;100.00
52777;BME280;38656;54.260;20.822;2024-03-07T07:42:41;102351.22;;;8.99;100.00
52777;BME280;38656;54.260;20.822;2024-03-07T07:45:11;102357.63;;;7.34;100.00
52777;BME280;38656;54.260;20.822;2024-03-07T07:47:45;102352.81;;;8.16;100.00
52777;BME280;38656;54.260;20.822;2024-03-07T07:50:15;102357.78;;;8.46;100.00
52777;BME280;38656;54.260;20.822;2024-03-07T07:52:55;102356.50;;;8.56;100.00
52777;BME280;38656;54.260;20.822;2024-03-07T07:55:23;102366.19;;;6.88;100.00
52777;BME280;38656;54.260;20.822;2024-03-07T07:57:58;102368.97;;;7.59;100.00
52777;BME280;38656;54.260;20.822;2024-03-07T08:00:26;102373.13;;;5.13;100.00
52777;BME280;38656;54.260;20.822;2024-03-07T08:03:01;102366.13;;;9.79;100.00
52777;BME280;38656;54.260;20.822;2024-03-07T08:05:33;102364.00;;;11.14;96.50
52777;BME280;38656;54.260;20.822;2024-03-07T08:08:07;102363.34;;;12.26;83.34
52777;BME280;38656;54.260;20.822;2024-03-07T08:10:35;102362.91;;;12.33;88.13
52777;BME280;38656;54.260;20.822;2024-03-07T08:13:03;102360.28;;;11.19;82.87
52777;BME280;38656;54.260;20.822;2024-03-07T08:15:30;102353.22;;;12.48;77.36
52777;BME280;38656;54.260;20.822;2024-03-07T08:17:57;102359.06;;;12.39;80.88
52777;BME280;38656;54.260;20.822;2024-03-07T08:20:25;102352.44;;;12.77;72.73
52777;BME280;38656;54.260;20.822;2024-03-07T08:22:56;102360.53;;;13.49;75.87
52777;BME280;38656;54.260;20.822;2024-03-07T08:25:24;102354.41;;;13.62;64.13
52777;BME280;38656;54.260;20.822;2024-03-07T08:27:52;102354.19;;;13.37;68.99
52777;BME280;38656;54.260;20.822;2024-03-07T08:30:19;102361.25;;;11.67;70.46
52777;BME280;38656;54.260;20.822;2024-03-07T08:32:50;102357.63;;;12.64;67.31
52777;BME280;38656;54.260;20.822;2024-03-07T08:35:20;102355.81;;;12.95;74.02
52777;BME280;38656;54.260;20.822;2024-03-07T08:37:48;102347.97;;;14.08;64.23
52777;BME280;38656;54.260;20.822;2024-03-07T08:40:23;102356.09;;;13.35;61.20
52777;BME280;38656;54.260;20.822;2024-03-07T08:42:50;102352.28;;;13.53;60.36
52777;BME280;38656;54.260;20.822;2024-03-07T08:45:18;102354.53;;;13.16;60.67
52777;BME280;38656;54.260;20.822;2024-03-07T08:47:52;102356.44;;;14.01;60.10
52777;BME280;38656;54.260;20.822;2024-03-07T08:50:20;102358.94;;;13.60;54.50
52777;BME280;38656;54.260;20.822;2024-03-07T08:52:48;102356.22;;;14.04;53.44
52777;BME280;38656;54.260;20.822;2024-03-07T08:55:15;102348.66;;;13.83;55.74
52777;BME280;38656;54.260;20.822;2024-03-07T08:57:43;102353.66;;;13.46;57.43
52777;BME280;38656;54.260;20.822;2024-03-07T09:00:12;102353.34;;;13.65;57.00
52777;BME280;38656;54.260;20.822;2024-03-07T09:02:53;102357.03;;;13.34;57.72
52777;BME280;38656;54.260;20.822;2024-03-07T09:05:23;102353.06;;;13.41;56.95
52777;BME280;38656;54.260;20.822;2024-03-07T09:07:50;102349.59;;;14.51;54.42
52777;BME280;38656;54.260;20.822;2024-03-07T09:10:17;102353.69;;;14.29;55.08
52777;BME280;38656;54.260;20.822;2024-03-07T09:12:44;102346.53;;;14.30;53.20
52777;BME280;38656;54.260;20.822;2024-03-07T09:15:11;102354.41;;;14.31;52.13
52777;BME280;38656;54.260;20.822;2024-03-07T09:17:38;102342.28;;;12.38;55.52
52777;BME280;38656;54.260;20.822;2024-03-07T09:20:05;102332.34;;;13.89;54.85
52777;BME280;38656;54.260;20.822;2024-03-07T09:22:32;102351.47;;;13.08;56.26
52777;BME280;38656;54.260;20.822;2024-03-07T09:24:58;102342.81;;;14.47;56.42
52777;BME280;38656;54.260;20.822;2024-03-07T09:27:25;102340.56;;;15.07;51.30
52777;BME280;38656;54.260;20.822;2024-03-07T09:29:51;102346.31;;;15.26;49.28
52777;BME280;38656;54.260;20.822;2024-03-07T09:32:18;102334.09;;;15.11;47.32
52777;BME280;38656;54.260;20.822;2024-03-07T09:34:44;102334.63;;;15.42;44.47
52777;BME280;38656;54.260;20.822;2024-03-07T09:37:10;102332.63;;;15.69;46.48
52777;BME280;38656;54.260;20.822;2024-03-07T09:39:36;102337.97;;;14.12;48.70
52777;BME280;38656;54.260;20.822;2024-03-07T09:42:05;102339.47;;;13.74;50.61
52777;BME280;38656;54.260;20.822;2024-03-07T09:44:36;102333.44;;;14.54;50.78
52777;BME280;38656;54.260;20.822;2024-03-07T09:47:05;102337.38;;;15.01;47.53
52777;BME280;38656;54.260;20.822;2024-03-07T09:49:33;102339.25;;;13.36;51.77
52777;BME280;38656;54.260;20.822;2024-03-07T09:52:06;102336.19;;;14.40;52.98
52777;BME280;38656;54.260;20.822;2024-03-07T09:54:38;102339.56;;;14.42;54.63
52777;BME280;38656;54.260;20.822;2024-03-07T09:57:06;102336.66;;;15.88;47.51
52777;BME280;38656;54.260;20.822;2024-03-07T09:59:35;102330.97;;;15.43;41.82
52777;BME280;38656;54.260;20.822;2024-03-07T10:02:06;102329.06;;;15.19;43.76
52777;BME280;38656;54.260;20.822;2024-03-07T10:04:43;102328.19;;;16.31;44.17
52777;BME280;38656;54.260;20.822;2024-03-07T10:07:11;102334.81;;;14.87;44.94
52777;BME280;38656;54.260;20.822;2024-03-07T10:09:40;102333.28;;;16.34;43.54
52777;BME280;38656;54.260;20.822;2024-03-07T10:12:09;102333.34;;;15.34;42.60
52777;BME280;38656;54.260;20.822;2024-03-07T10:14:56;102333.19;;;16.12;42.71
52777;BME280;38656;54.260;20.822;2024-03-07T10:17:25;102330.88;;;16.78;40.00
52777;BME280;38656;54.260;20.822;2024-03-07T10:19:55;102319.72;;;15.26;41.69
52777;BME280;38656;54.260;20.822;2024-03-07T10:22:22;102324.16;;;15.64;41.92
52777;BME280;38656;54.260;20.822;2024-03-07T10:24:52;102330.66;;;15.97;40.30
52777;BME280;38656;54.260;20.822;2024-03-07T10:27:20;102320.44;;;16.75;39.32
52777;BME280;38656;54.260;20.822;2024-03-07T10:29:53;102323.75;;;15.32;40.46
52777;BME280;38656;54.260;20.822;2024-03-07T10:32:21;102320.53;;;14.75;39.40
52777;BME280;38656;54.260;20.822;2024-03-07T10:34:49;102317.97;;;16.25;40.62
52777;BME280;38656;54.260;20.822;2024-03-07T10:37:16;102320.06;;;15.84;37.93
52777;BME280;38656;54.260;20.822;2024-03-07T10:39:46;102316.03;;;15.79;38.12
52777;BME280;38656;54.260;20.822;2024-03-07T10:42:17;102318.53;;;15.93;37.59
52777;BME280;38656;54.260;20.822;2024-03-07T10:44:47;102323.03;;;15.30;38.89
52777;BME280;38656;54.260;20.822;2024-03-07T10:47:18;102310.25;;;16.33;40.19
52777;BME280;38656;54.260;20.822;2024-03-07T10:50:17;102318.72;;;14.36;41.56
52777;BME280;38656;54.260;20.822;2024-03-07T10:52:58;102318.22;;;14.96;40.46
52777;BME280;38656;54.260;20.822;2024-03-07T10:58:05;102318.09;;;14.32;40.03
52777;BME280;38656;54.260;20.822;2024-03-07T11:00:38;102314.56;;;15.49;38.73
52777;BME280;38656;54.260;20.822;2024-03-07T11:03:11;102312.09;;;16.79;37.16
52777;BME280;38656;54.260;20.822;2024-03-07T11:05:37;102305.16;;;17.46;36.41
52777;BME280;38656;54.260;20.822;2024-03-07T11:08:05;102310.59;;;17.11;34.59
52777;BME280;38656;54.260;20.822;2024-03-07T11:10:37;102304.78;;;17.40;35.81
52777;BME280;38656;54.260;20.822;2024-03-07T11:13:09;102296.72;;;16.48;37.62
52777;BME280;38656;54.260;20.822;2024-03-07T11:15:41;102297.63;;;17.06;35.71
52777;BME280;38656;54.260;20.822;2024-03-07T11:18:08;102298.22;;;16.52;36.01
52777;BME280;38656;54.260;20.822;2024-03-07T11:20:37;102291.16;;;17.43;36.20
52777;BME280;38656;54.260;20.822;2024-03-07T11:23:31;102291.47;;;16.81;34.02
52777;BME280;38656;54.260;20.822;2024-03-07T11:26:10;102282.84;;;16.67;36.02
52777;BME280;38656;54.260;20.822;2024-03-07T11:28:41;102285.97;;;17.19;35.16
52777;BME280;38656;54.260;20.822;2024-03-07T11:31:28;102282.19;;;17.10;35.44
52777;BME280;38656;54.260;20.822;2024-03-07T11:34:15;102280.03;;;17.15;35.97
52777;BME280;38656;54.260;20.822;2024-03-07T11:36:45;102273.91;;;16.79;34.79
52777;BME280;38656;54.260;20.822;2024-03-07T11:39:43;102281.34;;;16.87;33.75
52777;BME280;38656;54.260;20.822;2024-03-07T11:42:42;102272.44;;;18.63;32.07
52777;BME280;38656;54.260;20.822;2024-03-07T11:45:10;102270.09;;;18.90;34.34
52777;BME280;38656;54.260;20.822;2024-03-07T11:47:46;102269.31;;;17.60;35.05
52777;BME280;38656;54.260;20.822;2024-03-07T11:50:12;102267.66;;;17.25;33.90
52777;BME280;38656;54.260;20.822;2024-03-07T11:52:39;102259.19;;;17.75;34.19
52777;BME280;38656;54.260;20.822;2024-03-07T11:55:10;102263.25;;;18.55;32.49
52777;BME280;38656;54.260;20.822;2024-03-07T11:57:38;102257.03;;;17.69;35.34
52777;BME280;38656;54.260;20.822;2024-03-07T12:00:06;102264.31;;;18.74;31.74
52777;BME280;38656;54.260;20.822;2024-03-07T12:02:39;102262.63;;;15.80;36.70
52777;BME280;38656;54.260;20.822;2024-03-07T12:05:06;102259.25;;;18.50;33.81
52777;BME280;38656;54.260;20.822;2024-03-07T12:07:33;102253.19;;;18.48;34.24
52777;BME280;38656;54.260;20.822;2024-03-07T12:10:02;102246.31;;;19.38;32.69
52777;BME280;38656;54.260;20.822;2024-03-07T12:12:32;102251.06;;;17.77;33.56
52777;BME280;38656;54.260;20.822;2024-03-07T12:14:59;102247.19;;;18.34;33.84
52777;BME280;38656;54.260;20.822;2024-03-07T12:17:26;102241.84;;;17.69;33.13
52777;BME280;38656;54.260;20.822;2024-03-07T12:19:52;102241.19;;;17.89;32.84
52777;BME280;38656;54.260;20.822;2024-03-07T12:22:22;102242.75;;;17.25;32.84
52777;BME280;38656;54.260;20.822;2024-03-07T12:25:01;102252.72;;;17.23;31.07
52777;BME280;38656;54.260;20.822;2024-03-07T12:27:28;102240.91;;;16.33;31.11
52777;BME280;38656;54.260;20.822;2024-03-07T12:29:55;102239.78;;;17.62;32.86
52777;BME280;38656;54.260;20.822;2024-03-07T12:32:22;102242.28;;;18.18;31.68
52777;BME280;38656;54.260;20.822;2024-03-07T12:34:50;102233.84;;;19.17;31.44
52777;BME280;38656;54.260;20.822;2024-03-07T12:37:18;102235.28;;;15.28;33.28
52777;BME280;38656;54.260;20.822;2024-03-07T12:39:49;102235.34;;;15.77;34.53
52777;BME280;38656;54.260;20.822;2024-03-07T12:42:28;102230.88;;;16.95;33.36
52777;BME280;38656;54.260;20.822;2024-03-07T12:44:57;102229.59;;;17.56;32.01